Time;durP1;ratioP1;P1;durP2;ratioP2;P2;SDS_P1;SDS_P2;PMS_P1;PMS_P2;Temp;Humidity;BMP_temperature;BMP_pressure;BME280_temperature;BME280_humidity;BME280_pressure;Samples;Min_cycle;Max_cycle;Signal;HPM_P1;HPM_P2
2022/05/11 00:01:20;;;;;;;8.50;5.05;;;15.10;63.10;;;;;;5011741;28;20283;-70
2022/05/11 00:04:10;;;;;;;9.93;4.80;;;15.20;63.20;;;;;;5009716;28;20246;-71
2022/05/11 00:06:59;;;;;;;12.25;4.80;;;15.20;63.00;;;;;;5006899;28;20883;-70
2022/05/11 00:09:52;;;;;;;6.53;4.38;;;15.10;63.00;;;;;;5015780;28;20277;-71
2022/05/11 00:12:40;;;;;;;9.15;4.10;;;15.10;63.50;;;;;;4993826;28;20226;-70
2022/05/11 00:15:29;;;;;;;6.45;4.20;;;15.10;63.50;;;;;;5016787;28;20700;-70
2022/05/11 00:18:19;;;;;;;8.00;4.63;;;15.10;64.00;;;;;;5007559;28;20221;-69
2022/05/11 00:21:12;;;;;;;8.93;4.18;;;15.10;64.40;;;;;;5015031;28;20222;-69
2022/05/11 00:24:01;;;;;;;10.60;4.90;;;15.10;63.80;;;;;;5005200;28;20218;-70
2022/05/11 00:26:50;;;;;;;9.90;4.50;;;15.00;64.60;;;;;;5013625;28;20264;-70
2022/05/11 00:29:38;;;;;;;8.73;4.60;;;14.90;64.40;;;;;;5016180;28;20600;-69
2022/05/11 00:32:27;;;;;;;7.47;4.88;;;14.90;65.00;;;;;;5008819;28;20312;-69
2022/05/11 00:35:18;;;;;;;10.48;4.60;;;14.90;64.50;;;;;;5027362;28;20389;-69
2022/05/11 00:38:07;;;;;;;8.18;4.72;;;15.00;64.60;;;;;;5018921;28;20233;-69
2022/05/11 00:40:58;;;;;;;9.93;4.70;;;14.90;64.80;;;;;;5030737;28;20222;-68
2022/05/11 00:43:55;;;;;;;8.85;4.65;;;14.80;65.20;;;;;;5023384;28;20237;-70
2022/05/11 00:46:51;;;;;;;7.43;4.80;;;14.80;65.70;;;;;;5011139;28;20405;-69
2022/05/11 00:49:43;;;;;;;7.63;4.70;;;14.70;66.10;;;;;;5015497;28;20229;-68
2022/05/11 00:52:43;;;;;;;8.45;5.15;;;14.60;66.40;;;;;;5008662;28;20794;-71
2022/05/11 00:55:36;;;;;;;10.90;5.00;;;14.60;66.60;;;;;;5017725;28;20886;-71
2022/05/11 00:58:28;;;;;;;9.32;4.85;;;14.50;67.10;;;;;;4994891;28;20248;-69
2022/05/11 01:01:17;;;;;;;8.88;4.75;;;14.60;67.00;;;;;;5006062;28;20238;-71
2022/05/11 01:04:10;;;;;;;8.45;4.78;;;14.60;67.20;;;;;;5001000;28;20343;-70
2022/05/11 01:06:59;;;;;;;13.32;4.82;;;14.50;67.80;;;;;;5008338;28;20217;-70
2022/05/11 01:09:50;;;;;;;7.93;4.95;;;14.60;67.80;;;;;;5026477;28;20224;-70
2022/05/11 01:12:42;;;;;;;7.68;4.72;;;14.60;67.60;;;;;;5005969;28;20719;-70
2022/05/11 01:15:33;;;;;;;10.80;5.32;;;14.60;67.40;;;;;;4997049;28;20234;-70
2022/05/11 01:18:24;;;;;;;9.00;4.75;;;14.60;67.60;;;;;;4990495;28;20338;-69
2022/05/11 01:21:14;;;;;;;8.73;4.40;;;14.70;67.40;;;;;;4995863;28;20226;-69
2022/05/11 01:24:10;;;;;;;7.90;4.95;;;14.50;68.10;;;;;;5008416;28;20565;-70
2022/05/11 01:27:25;;;;;;;7.93;4.57;;;14.70;67.70;;;;;;4971305;28;20388;-67
2022/05/11 01:30:21;;;;;;;11.50;4.60;;;14.60;68.10;;;;;;5009016;28;20226;-67
2022/05/11 01:33:15;;;;;;;9.13;4.35;;;14.70;68.20;;;;;;4986791;28;20237;-69
2022/05/11 01:36:14;;;;;;;10.32;4.45;;;14.50;68.50;;;;;;4990725;28;20880;-70
2022/05/11 01:39:05;;;;;;;7.85;4.53;;;14.60;68.70;;;;;;4996259;28;20669;-70
2022/05/11 01:41:59;;;;;;;9.90;4.10;;;14.60;68.40;;;;;;4989179;28;20226;-70
2022/05/11 01:44:49;;;;;;;7.22;4.30;;;14.60;68.00;;;;;;4996443;28;20356;-70
2022/05/11 01:47:38;;;;;;;8.45;4.45;;;14.70;68.30;;;;;;4986888;28;20551;-70
2022/05/11 01:50:28;;;;;;;6.68;4.30;;;14.60;68.70;;;;;;4998589;28;20226;-71
2022/05/11 01:53:21;;;;;;;10.63;4.28;;;14.50;68.80;;;;;;4986353;28;20250;-70
2022/05/11 01:56:10;;;;;;;9.05;4.75;;;14.50;68.70;;;;;;4994094;28;20214;-69
2022/05/11 01:58:58;;;;;;;7.07;4.53;;;14.50;68.90;;;;;;4990619;28;20257;-69
2022/05/11 02:01:49;;;;;;;9.48;4.40;;;14.50;69.50;;;;;;4989946;28;20313;-68
2022/05/11 02:07:53;;;;;;;9.88;4.32;;;14.40;69.20;;;;;;4988456;28;20668;-70
2022/05/11 02:10:42;;;;;;;9.25;4.38;;;14.30;69.80;;;;;;5011487;28;20313;-70
2022/05/11 02:13:32;;;;;;;9.63;4.75;;;14.40;69.80;;;;;;4997483;28;20596;-70
2022/05/11 02:16:21;;;;;;;10.13;4.63;;;14.40;70.10;;;;;;4995839;28;20213;-69
2022/05/11 02:19:11;;;;;;;9.75;4.78;;;14.30;70.60;;;;;;4998020;28;20360;-68
2022/05/11 02:22:00;;;;;;;8.57;4.80;;;14.30;70.40;;;;;;5009971;28;20343;-69
2022/05/11 02:24:49;;;;;;;8.98;4.38;;;14.30;70.60;;;;;;5009207;28;20313;-70
2022/05/11 02:27:37;;;;;;;10.95;4.82;;;14.30;70.60;;;;;;5005646;28;20213;-69
2022/05/11 02:30:29;;;;;;;7.70;4.60;;;14.30;71.20;;;;;;5001573;28;20308;-68
2022/05/11 02:33:18;;;;;;;8.02;4.60;;;14.20;71.30;;;;;;5006805;28;20309;-68
2022/05/11 02:36:08;;;;;;;8.40;5.18;;;14.10;71.90;;;;;;5005514;28;20237;-70
2022/05/11 02:38:57;;;;;;;7.65;4.80;;;14.20;72.00;;;;;;4998280;28;20320;-69
2022/05/11 02:41:45;;;;;;;10.68;4.60;;;14.20;72.20;;;;;;4977107;28;20226;-68
2022/05/11 02:44:34;;;;;;;10.02;5.47;;;14.10;73.50;;;;;;4982193;28;20320;-69
2022/05/11 02:47:23;;;;;;;8.43;4.95;;;14.10;72.80;;;;;;4989275;28;20977;-68
2022/05/11 02:50:22;;;;;;;11.98;4.75;;;14.10;73.00;;;;;;4994421;28;20218;-68
2022/05/11 02:53:12;;;;;;;11.50;5.13;;;14.00;73.10;;;;;;4985315;28;20731;-69
2022/05/11 02:56:04;;;;;;;13.27;5.38;;;14.10;73.20;;;;;;4992209;28;20357;-68
2022/05/11 02:58:53;;;;;;;9.10;4.57;;;14.10;73.20;;;;;;4989977;28;20626;-69
2022/05/11 03:01:42;;;;;;;7.82;4.78;;;14.10;73.10;;;;;;4990105;28;20214;-69
2022/05/11 03:04:31;;;;;;;8.98;5.15;;;14.10;72.90;;;;;;4989423;28;20210;-70
2022/05/11 03:07:19;;;;;;;10.98;5.00;;;14.20;72.70;;;;;;4987982;28;20240;-69
2022/05/11 03:10:13;;;;;;;10.25;4.68;;;14.20;72.50;;;;;;5020192;28;20794;-69
2022/05/11 03:13:02;;;;;;;8.00;4.43;;;14.20;72.40;;;;;;4985809;28;20269;-69
2022/05/11 03:15:52;;;;;;;16.10;4.95;;;14.30;72.30;;;;;;4992634;28;20246;-69
2022/05/11 03:18:41;;;;;;;8.38;4.45;;;14.30;72.80;;;;;;4993808;28;20230;-70
2022/05/11 03:21:30;;;;;;;11.15;4.68;;;14.10;73.30;;;;;;4994860;28;20224;-70
2022/05/11 03:24:23;;;;;;;9.13;5.15;;;14.00;73.80;;;;;;4999369;28;20300;-69
2022/05/11 03:27:13;;;;;;;11.55;4.93;;;14.10;74.20;;;;;;4991681;28;20286;-69
2022/05/11 03:30:02;;;;;;;11.02;5.47;;;14.00;74.80;;;;;;5025930;28;20352;-70
2022/05/11 03:35:57;;;;;;;8.98;5.32;;;14.00;75.50;;;;;;5013151;28;20227;-69
2022/05/11 03:38:45;;;;;;;10.05;5.05;;;14.10;75.30;;;;;;4994091;28;20225;-69
2022/05/11 03:41:35;;;;;;;10.18;5.07;;;14.10;75.30;;;;;;5006574;28;20221;-68
2022/05/11 03:44:25;;;;;;;8.85;5.03;;;14.20;75.40;;;;;;5022850;28;20237;-68
2022/05/11 03:47:13;;;;;;;8.90;4.75;;;14.20;75.20;;;;;;4980423;28;20320;-69
2022/05/11 03:50:02;;;;;;;12.23;5.22;;;14.20;75.10;;;;;;5000957;28;20263;-68
2022/05/11 03:52:52;;;;;;;10.10;4.78;;;14.20;74.70;;;;;;4988872;28;20237;-69
2022/05/11 03:55:41;;;;;;;12.70;4.97;;;14.20;74.70;;;;;;4997929;28;20230;-67
2022/05/11 03:58:29;;;;;;;8.02;4.55;;;14.20;75.30;;;;;;4992147;28;20230;-67
2022/05/11 04:01:20;;;;;;;7.65;4.72;;;14.20;75.50;;;;;;4996448;28;21016;-66
2022/05/11 04:04:08;;;;;;;10.30;4.40;;;14.20;75.70;;;;;;5000674;28;20288;-69
2022/05/11 04:06:57;;;;;;;9.82;4.85;;;14.30;75.50;;;;;;4995337;28;20222;-70
2022/05/11 04:09:46;;;;;;;10.95;5.10;;;14.30;75.60;;;;;;4996908;28;20306;-68
2022/05/11 04:12:35;;;;;;;11.75;5.13;;;14.30;75.30;;;;;;4991590;28;20225;-70
2022/05/11 04:15:24;;;;;;;10.13;4.53;;;14.30;75.10;;;;;;4996007;28;20717;-70
2022/05/11 04:18:14;;;;;;;11.80;4.80;;;14.40;75.10;;;;;;4996909;28;20531;-69
2022/05/11 04:21:03;;;;;;;11.13;4.60;;;14.40;75.50;;;;;;5011496;28;20250;-70
2022/05/11 04:23:51;;;;;;;10.00;4.70;;;14.50;74.90;;;;;;4981529;28;20222;-69
2022/05/11 04:26:41;;;;;;;12.20;5.03;;;14.60;74.60;;;;;;4991500;28;20341;-73
2022/05/11 04:29:30;;;;;;;11.02;4.88;;;14.80;74.60;;;;;;4995804;28;20219;-69
2022/05/11 04:32:19;;;;;;;8.10;4.88;;;14.70;74.40;;;;;;4993439;28;20215;-70
2022/05/11 04:35:10;;;;;;;10.18;4.88;;;14.80;74.60;;;;;;4994096;28;20222;-69
2022/05/11 04:37:59;;;;;;;9.77;5.57;;;14.80;74.50;;;;;;4993406;28;20247;-70
2022/05/11 04:40:48;;;;;;;10.43;4.70;;;14.90;74.20;;;;;;4995797;28;20635;-70
2022/05/11 04:43:36;;;;;;;8.48;4.60;;;15.00;74.00;;;;;;4990855;28;20220;-70
2022/05/11 04:46:25;;;;;;;7.53;4.50;;;15.00;74.00;;;;;;5026454;28;20810;-69
2022/05/11 04:49:20;;;;;;;10.90;4.80;;;15.00;74.20;;;;;;5013874;28;20751;-69
2022/05/11 04:52:13;;;;;;;8.48;4.57;;;15.10;74.20;;;;;;5011003;28;20233;-71
2022/05/11 04:55:02;;;;;;;12.00;5.28;;;15.20;74.10;;;;;;4992570;28;20236;-69
2022/05/11 04:57:51;;;;;;;10.80;5.10;;;15.40;73.90;;;;;;5011488;28;20308;-71
2022/05/11 05:00:40;;;;;;;7.70;4.72;;;15.40;73.60;;;;;;4997112;28;20325;-70
2022/05/11 05:03:29;;;;;;;9.13;5.15;;;15.60;73.70;;;;;;4987935;28;20218;-70
2022/05/11 05:06:18;;;;;;;10.63;4.85;;;15.50;73.20;;;;;;5000980;28;20218;-70
2022/05/11 05:09:08;;;;;;;7.00;4.70;;;15.50;73.70;;;;;;4982817;28;20293;-69
2022/05/11 05:11:57;;;;;;;10.82;4.88;;;15.50;73.90;;;;;;5012664;28;20379;-70
2022/05/11 05:14:46;;;;;;;9.85;4.78;;;15.50;74.20;;;;;;5002593;28;20241;-70
2022/05/11 05:17:38;;;;;;;14.60;5.03;;;15.60;74.10;;;;;;5014750;28;20221;-71
2022/05/11 05:20:30;;;;;;;11.32;4.90;;;15.70;74.00;;;;;;5007431;28;20218;-72
2022/05/11 05:23:18;;;;;;;10.25;4.93;;;15.60;74.30;;;;;;5016491;28;20226;-71
2022/05/11 05:26:09;;;;;;;13.40;5.45;;;15.70;74.10;;;;;;4989109;28;20222;-70
2022/05/11 05:32:05;;;;;;;11.82;4.95;;;15.80;74.10;;;;;;5016609;28;20218;-69
2022/05/11 05:34:57;;;;;;;8.32;5.15;;;16.00;73.90;;;;;;5001954;28;20233;-71
2022/05/11 05:37:50;;;;;;;11.93;5.00;;;16.00;74.00;;;;;;5014916;28;20316;-71
2022/05/11 05:40:39;;;;;;;12.95;5.03;;;16.20;74.00;;;;;;5017057;28;20230;-70
2022/05/11 05:43:32;;;;;;;18.65;5.10;;;16.30;73.60;;;;;;5005375;28;20823;-71
2022/05/11 05:46:22;;;;;;;12.82;6.03;;;16.50;73.40;;;;;;5017776;28;20218;-71
2022/05/11 05:49:11;;;;;;;15.77;5.07;;;16.70;73.00;;;;;;5003514;28;20226;-70
2022/05/11 05:51:59;;;;;;;13.90;5.38;;;17.20;72.30;;;;;;5008374;28;20233;-72
2022/05/11 05:54:50;;;;;;;11.27;5.15;;;17.60;70.70;;;;;;5000818;28;20249;-70
2022/05/11 05:57:39;;;;;;;11.05;5.13;;;17.50;70.70;;;;;;5001653;28;20713;-70
2022/05/11 06:00:29;;;;;;;16.05;4.82;;;17.80;70.50;;;;;;5015635;28;21332;-69
2022/05/11 06:03:20;;;;;;;11.63;6.03;;;18.20;69.80;;;;;;5021782;28;20298;-71
2022/05/11 06:06:09;;;;;;;13.18;5.03;;;18.20;69.40;;;;;;4992297;28;20318;-71
2022/05/11 06:08:58;;;;;;;14.80;5.25;;;18.00;70.20;;;;;;4997091;28;20272;-71
2022/05/11 06:11:47;;;;;;;15.40;5.15;;;17.90;70.40;;;;;;5019798;28;20266;-71
2022/05/11 06:14:37;;;;;;;11.65;4.95;;;17.80;70.90;;;;;;5020455;28;20227;-70
2022/05/11 06:17:28;;;;;;;12.68;4.93;;;17.70;71.10;;;;;;4997355;28;20246;-72
2022/05/11 06:20:17;;;;;;;14.75;5.70;;;17.70;71.80;;;;;;4994518;28;20325;-71
2022/05/11 06:23:07;;;;;;;14.77;5.47;;;17.90;71.60;;;;;;5000510;28;20305;-70
2022/05/11 06:25:56;;;;;;;14.98;5.30;;;17.90;71.60;;;;;;4994746;28;20364;-72
2022/05/11 06:28:47;;;;;;;13.20;5.97;;;18.10;71.70;;;;;;4979251;28;20222;-73
2022/05/11 06:31:39;;;;;;;13.63;5.20;;;18.20;71.00;;;;;;4994340;28;20230;-72
2022/05/11 06:34:29;;;;;;;13.82;5.22;;;18.30;71.00;;;;;;4993696;28;20645;-71
2022/05/11 06:37:17;;;;;;;17.33;5.50;;;18.40;70.90;;;;;;4978866;28;20313;-68
2022/05/11 06:40:07;;;;;;;15.23;5.75;;;18.50;71.30;;;;;;4999705;28;20245;-71
2022/05/11 06:42:57;;;;;;;20.23;5.70;;;18.60;70.80;;;;;;4986592;28;20226;-71
2022/05/11 06:45:46;;;;;;;10.65;5.30;;;18.80;70.70;;;;;;4989146;28;20428;-70
2022/05/11 06:48:39;;;;;;;11.63;5.32;;;18.90;70.90;;;;;;4987289;28;20233;-68
2022/05/11 06:51:29;;;;;;;13.80;5.53;;;19.00;70.50;;;;;;4989460;28;20621;-69
2022/05/11 07:00:32;;;;;;;14.18;5.47;;;19.10;70.30;;;;;;5001342;28;20287;-71
2022/05/11 07:03:21;;;;;;;17.45;5.22;;;19.50;69.90;;;;;;5000228;28;20214;-71
2022/05/11 07:06:10;;;;;;;16.65;4.97;;;19.50;69.90;;;;;;4986128;28;20218;-70
2022/05/11 07:09:00;;;;;;;17.70;5.45;;;19.70;70.00;;;;;;5004922;28;20609;-70
2022/05/11 07:14:57;;;;;;;19.52;6.32;;;20.10;68.90;;;;;;5018017;28;20229;-70
2022/05/11 07:17:49;;;;;;;21.30;6.53;;;20.40;68.70;;;;;;5018928;28;20301;-71
2022/05/11 07:20:38;;;;;;;14.38;6.03;;;20.80;68.20;;;;;;5018040;28;20220;-70
2022/05/11 07:23:28;;;;;;;15.13;5.85;;;21.10;67.30;;;;;;5020432;28;20249;-70
2022/05/11 07:26:24;;;;;;;18.23;5.88;;;21.50;67.40;;;;;;5003257;28;20354;-70
2022/05/11 07:29:14;;;;;;;15.82;6.22;;;21.80;65.30;;;;;;5008919;28;21002;-70
2022/05/11 07:32:04;;;;;;;16.90;5.72;;;22.20;64.60;;;;;;4996091;28;20226;-69
2022/05/11 07:34:52;;;;;;;13.77;5.70;;;22.00;64.50;;;;;;5002865;28;20848;-69
2022/05/11 07:37:44;;;;;;;16.23;6.55;;;22.40;64.30;;;;;;4994768;28;20214;-71
2022/05/11 07:40:32;;;;;;;15.60;5.90;;;22.80;64.00;;;;;;4999073;28;20236;-70
2022/05/11 07:43:23;;;;;;;14.43;6.30;;;23.90;62.10;;;;;;4986550;28;20214;-71
2022/05/11 07:46:12;;;;;;;13.40;5.68;;;24.00;60.80;;;;;;4998466;28;20222;-71
2022/05/11 07:49:02;;;;;;;14.48;5.53;;;24.40;61.10;;;;;;5014898;28;20371;-70
2022/05/11 07:51:52;;;;;;;13.75;6.90;;;24.80;60.40;;;;;;5004050;28;20225;-70
2022/05/11 07:54:41;;;;;;;11.02;5.90;;;25.20;59.60;;;;;;5033548;28;20307;-71
2022/05/11 08:00:38;;;;;;;15.85;6.05;;;25.70;58.70;;;;;;5018706;28;20261;-70
2022/05/11 08:03:27;;;;;;;21.10;5.88;;;26.20;57.80;;;;;;5018913;28;20218;-70
2022/05/11 08:06:18;;;;;;;15.50;6.10;;;25.20;59.10;;;;;;5009740;28;20218;-71
2022/05/11 08:09:08;;;;;;;18.40;6.10;;;26.60;58.20;;;;;;4996945;28;20234;-71
2022/05/11 08:11:56;;;;;;;16.80;6.90;;;26.40;57.70;;;;;;5015926;28;20297;-70
2022/05/11 08:14:48;;;;;;;17.90;5.97;;;26.00;58.90;;;;;;4999944;28;20778;-72
2022/05/11 08:17:41;;;;;;;11.27;5.40;;;27.10;57.60;;;;;;4995656;28;20226;-70
2022/05/11 08:20:32;;;;;;;16.65;6.07;;;26.70;57.40;;;;;;4998912;28;20237;-70
2022/05/11 08:23:22;;;;;;;15.82;6.18;;;27.50;57.20;;;;;;4998530;28;20230;-70
2022/05/11 08:26:11;;;;;;;12.57;5.75;;;27.20;56.90;;;;;;4999983;28;20774;-70
2022/05/11 08:29:00;;;;;;;18.27;6.15;;;26.70;57.50;;;;;;4994110;28;20230;-70
2022/05/11 08:34:56;;;;;;;14.68;6.07;;;25.50;59.10;;;;;;4998622;28;20287;-69
2022/05/11 08:37:48;;;;;;;19.23;5.95;;;25.00;60.40;;;;;;5001985;28;20226;-70
2022/05/11 08:40:46;;;;;;;11.13;5.85;;;25.10;61.20;;;;;;4989647;28;20218;-72
2022/05/11 08:43:40;;;;;;;14.82;6.13;;;26.00;59.60;;;;;;4983841;28;20217;-71
2022/05/11 08:46:43;;;;;;;10.90;6.28;;;26.60;59.70;;;;;;5001926;28;20222;-71
2022/05/11 08:49:44;;;;;;;14.13;5.80;;;27.30;58.40;;;;;;4988540;28;20230;-71
2022/05/11 08:52:40;;;;;;;14.20;6.15;;;27.40;57.70;;;;;;5016165;28;20222;-72
2022/05/11 08:55:41;;;;;;;11.98;6.28;;;27.70;57.40;;;;;;4998064;28;20218;-71
2022/05/11 08:58:36;;;;;;;15.57;6.50;;;28.50;56.40;;;;;;5015353;28;20228;-73
2022/05/11 09:01:29;;;;;;;21.95;7.07;;;29.70;55.60;;;;;;5012717;28;20650;-70
2022/05/11 09:04:24;;;;;;;17.27;6.20;;;28.30;56.60;;;;;;5002826;28;20237;-70
2022/05/11 09:07:12;;;;;;;13.18;6.57;;;27.40;57.50;;;;;;4999615;28;21012;-70
2022/05/11 09:10:03;;;;;;;11.70;5.93;;;28.80;57.20;;;;;;5015516;28;20786;-71
2022/05/11 09:12:54;;;;;;;11.07;6.47;;;29.40;56.10;;;;;;4998381;28;20230;-72
2022/05/11 09:15:53;;;;;;;17.90;7.38;;;29.90;54.90;;;;;;5001709;28;20320;-71
2022/05/11 09:18:42;;;;;;;12.82;6.57;;;28.60;55.40;;;;;;5000164;28;20234;-71
2022/05/11 09:21:33;;;;;;;11.85;6.43;;;29.30;55.30;;;;;;5000324;28;20230;-74
2022/05/11 09:24:28;;;;;;;12.75;6.53;;;28.60;55.40;;;;;;5002074;28;20725;-74
2022/05/11 09:27:26;;;;;;;10.68;6.72;;;28.40;56.80;;;;;;5000228;28;20238;-72
2022/05/11 09:30:21;;;;;;;14.50;6.90;;;29.10;55.90;;;;;;5027433;28;20219;-72
2022/05/11 09:33:15;;;;;;;15.57;7.10;;;29.60;55.10;;;;;;5023803;28;20369;-72
2022/05/11 09:36:05;;;;;;;18.30;6.60;;;29.80;55.60;;;;;;4999258;28;20277;-74
2022/05/11 09:39:20;;;;;;;9.77;6.20;;;29.80;54.90;;;;;;4987696;28;20536;-73
2022/05/11 09:42:15;;;;;;;12.52;6.68;;;31.90;52.80;;;;;;5006208;28;20233;-73
2022/05/11 09:45:07;;;;;;;14.00;6.60;;;32.70;50.90;;;;;;5010969;28;20254;-73
2022/05/11 09:48:07;;;;;;;13.70;6.78;;;34.30;49.10;;;;;;4999460;28;20579;-73
2022/05/11 09:50:58;;;;;;;11.77;6.18;;;34.50;48.70;;;;;;4997679;28;20310;-74
2022/05/11 09:53:52;;;;;;;10.30;6.45;;;34.20;49.00;;;;;;5017144;28;20528;-72
2022/05/11 09:57:04;;;;;;;10.77;6.35;;;34.40;49.00;;;;;;5002424;28;20225;-73
2022/05/11 09:59:56;;;;;;;12.57;5.78;;;34.60;47.80;;;;;;5008744;28;20233;-74
2022/05/11 10:02:50;;;;;;;8.40;5.70;;;34.00;47.70;;;;;;4999762;28;20319;-73
2022/05/11 10:05:42;;;;;;;11.95;5.30;;;33.10;48.30;;;;;;5003699;28;20728;-73
2022/05/11 10:08:33;;;;;;;8.13;5.78;;;31.80;49.60;;;;;;4997842;28;20214;-73
2022/05/11 10:11:25;;;;;;;11.98;6.15;;;31.70;50.40;;;;;;5000644;28;20229;-74
2022/05/11 10:24:04;;;;;;;12.18;5.40;;;33.70;48.70;;;;;;4992927;28;20220;-75
2022/05/11 10:27:01;;;;;;;6.57;5.28;;;33.60;48.60;;;;;;4999448;28;20225;-73
2022/05/11 10:30:03;;;;;;;10.07;5.13;;;33.60;47.40;;;;;;4998903;28;20270;-73
2022/05/11 10:33:12;;;;;;;11.60;5.20;;;32.90;48.70;;;;;;5001719;28;20228;-74
2022/05/11 10:36:09;;;;;;;12.02;5.68;;;33.30;49.70;;;;;;5004726;28;20692;-74
2022/05/11 10:39:09;;;;;;;11.88;5.50;;;34.00;47.80;;;;;;5013399;28;20251;-73
2022/05/11 10:42:08;;;;;;;5.90;5.30;;;34.40;47.10;;;;;;5013313;28;20591;-74
2022/05/11 10:45:09;;;;;;;7.20;5.72;;;33.30;47.90;;;;;;5001314;28;20240;-74
2022/05/11 10:48:16;;;;;;;10.63;5.63;;;32.60;48.20;;;;;;5005033;28;20603;-73
2022/05/11 10:51:15;;;;;;;10.35;5.22;;;32.10;48.20;;;;;;4995757;28;20240;-72
2022/05/11 10:54:11;;;;;;;7.95;5.05;;;32.50;48.50;;;;;;4994865;28;20309;-72
2022/05/11 10:57:08;;;;;;;8.85;5.43;;;31.90;49.70;;;;;;5012056;28;20227;-72
2022/05/11 11:00:10;;;;;;;9.55;5.47;;;32.70;49.00;;;;;;5027841;28;20280;-73
2022/05/11 11:03:34;;;;;;;8.40;5.10;;;33.90;48.30;;;;;;5013456;28;20684;-74
2022/05/11 11:10:18;;;;;;;14.95;5.35;;;34.00;47.00;;;;;;4998903;28;20708;-73
2022/05/11 11:13:37;;;;;;;8.50;5.03;;;33.00;48.00;;;;;;5034103;28;20220;-73
2022/05/11 11:16:34;;;;;;;9.07;5.32;;;33.20;48.50;;;;;;4995798;28;20233;-73
2022/05/11 11:19:24;;;;;;;10.25;4.95;;;32.60;49.20;;;;;;4994734;28;20232;-76
2022/05/11 11:22:14;;;;;;;10.30;5.38;;;31.90;50.40;;;;;;4998336;28;20589;-78
2022/05/11 11:25:23;;;;;;;6.47;5.15;;;32.50;48.80;;;;;;4993710;28;20300;-72
2022/05/11 11:28:15;;;;;;;9.52;5.50;;;33.20;48.20;;;;;;4985444;28;20224;-75
2022/05/11 11:31:22;;;;;;;6.70;5.20;;;34.10;46.80;;;;;;4993894;28;20317;-73
2022/05/11 11:34:23;;;;;;;10.38;5.68;;;33.00;47.50;;;;;;4992625;28;20307;-73
2022/05/11 11:37:48;;;;;;;5.93;5.35;;;32.30;48.50;;;;;;4998952;28;20237;-75
2022/05/11 11:40:41;;;;;;;8.80;5.03;;;32.40;48.40;;;;;;5019779;28;20320;-71
2022/05/11 11:43:46;;;;;;;11.45;5.25;;;31.60;49.20;;;;;;5002517;28;20217;-72
2022/05/11 11:46:38;;;;;;;7.10;5.25;;;31.30;50.00;;;;;;4993358;28;20665;-74
2022/05/11 11:49:42;;;;;;;9.48;5.80;;;30.70;50.30;;;;;;4992825;28;20229;-73
2022/05/11 11:52:37;;;;;;;6.72;5.22;;;29.80;50.90;;;;;;5001089;28;20241;-72
2022/05/11 11:55:28;;;;;;;9.45;5.60;;;29.40;51.30;;;;;;5010700;28;20338;-73
2022/05/11 11:58:26;;;;;;;7.80;5.97;;;29.20;52.10;;;;;;4982730;28;20234;-72
2022/05/11 12:01:25;;;;;;;10.15;5.95;;;28.90;53.00;;;;;;5017213;28;20895;-72
2022/05/11 12:04:23;;;;;;;11.32;6.13;;;28.60;53.80;;;;;;5021747;28;20233;-72
2022/05/11 12:16:49;;;;;;;11.32;6.72;;;30.30;51.90;;;;;;5036186;28;20640;-71
2022/05/11 12:19:41;;;;;;;10.68;6.60;;;29.70;52.10;;;;;;5020061;28;20436;-71
2022/05/11 12:22:31;;;;;;;16.17;7.38;;;29.50;53.10;;;;;;5006212;28;20570;-73
2022/05/11 12:25:28;;;;;;;11.48;7.10;;;29.10;53.60;;;;;;5005423;28;20249;-73
2022/05/11 12:28:23;;;;;;;11.45;6.80;;;28.70;54.10;;;;;;5016770;28;20370;-72
2022/05/11 12:31:26;;;;;;;11.07;7.07;;;28.40;54.00;;;;;;5007790;28;20224;-74
2022/05/11 12:34:16;;;;;;;10.00;6.68;;;28.30;54.50;;;;;;5023194;28;21090;-73
2022/05/11 12:37:22;;;;;;;9.05;7.18;;;28.20;55.10;;;;;;5006065;28;20279;-69
2022/05/11 12:40:14;;;;;;;7.85;6.97;;;28.10;54.90;;;;;;5003569;28;20766;-73
2022/05/11 12:43:09;;;;;;;12.57;7.00;;;28.20;55.50;;;;;;5004622;28;20291;-73
2022/05/11 12:46:00;;;;;;;10.18;7.88;;;28.20;55.20;;;;;;4992068;28;20285;-70
2022/05/11 12:48:56;;;;;;;8.23;6.78;;;28.30;55.90;;;;;;5002187;28;20704;-71
2022/05/11 12:51:53;;;;;;;8.50;6.47;;;28.40;55.70;;;;;;4985089;28;20336;-73
2022/05/11 12:54:55;;;;;;;8.63;6.72;;;28.40;55.50;;;;;;5002962;28;20266;-71
2022/05/11 12:57:45;;;;;;;8.98;6.90;;;28.20;55.40;;;;;;5001957;28;20307;-73
2022/05/11 13:00:40;;;;;;;7.90;7.07;;;27.80;56.00;;;;;;5009060;28;20233;-71
2022/05/11 13:03:33;;;;;;;13.57;7.13;;;27.90;56.10;;;;;;5001347;28;20250;-72
2022/05/11 13:06:31;;;;;;;10.05;7.53;;;28.00;56.50;;;;;;4985562;28;20601;-72
2022/05/11 13:09:35;;;;;;;11.80;7.15;;;27.60;56.80;;;;;;5002270;28;20567;-73
2022/05/11 13:12:25;;;;;;;8.90;7.30;;;27.60;57.10;;;;;;5013838;28;20249;-72
2022/05/11 13:15:14;;;;;;;10.80;7.25;;;27.60;56.50;;;;;;5019983;28;20435;-72
2022/05/11 13:18:05;;;;;;;7.80;7.07;;;27.60;56.60;;;;;;5009139;28;20245;-73
2022/05/11 13:20:56;;;;;;;9.35;7.22;;;27.40;56.90;;;;;;5021003;28;20267;-73
2022/05/11 13:23:51;;;;;;;10.80;8.20;;;27.60;56.50;;;;;;5023004;28;20256;-71
2022/05/11 13:26:43;;;;;;;9.65;7.53;;;28.00;56.00;;;;;;5030190;28;20895;-71
2022/05/11 13:29:31;;;;;;;10.70;6.85;;;27.80;56.60;;;;;;5023028;28;20735;-72
2022/05/11 13:32:26;;;;;;;10.15;9.07;;;27.70;56.00;;;;;;5010847;28;20237;-74
2022/05/11 13:35:21;;;;;;;11.23;6.60;;;27.70;56.10;;;;;;5025186;28;20271;-72
2022/05/11 13:38:18;;;;;;;13.45;7.03;;;27.90;55.80;;;;;;5021559;28;20232;-74
2022/05/11 13:41:15;;;;;;;10.15;7.75;;;28.10;55.50;;;;;;5020312;28;20227;-74
2022/05/11 13:44:08;;;;;;;14.95;6.88;;;28.20;55.60;;;;;;5006969;28;20245;-74
2022/05/11 13:50:33;;;;;;;7.72;6.65;;;27.80;55.80;;;;;;4950310;28;20259;-73
2022/05/11 13:53:31;;;;;;;9.55;8.27;;;27.80;56.00;;;;;;4956804;28;20772;-72
2022/05/11 13:56:25;;;;;;;12.52;7.55;;;27.50;56.90;;;;;;5023025;28;20226;-71
2022/05/11 13:59:16;;;;;;;7.57;6.25;;;27.70;56.70;;;;;;5005752;28;20767;-74
2022/05/11 14:02:05;;;;;;;12.13;7.90;;;27.70;56.20;;;;;;5001493;28;20226;-74
2022/05/11 14:04:53;;;;;;;10.30;7.75;;;27.80;56.60;;;;;;4985915;28;20303;-75
2022/05/11 14:07:43;;;;;;;10.95;7.25;;;27.60;57.10;;;;;;4984755;28;20241;-75
2022/05/11 14:10:32;;;;;;;10.63;7.00;;;27.50;57.40;;;;;;4999907;28;20339;-75
2022/05/11 14:13:22;;;;;;;7.75;7.05;;;27.50;57.40;;;;;;4996667;28;20304;-74
2022/05/11 14:16:13;;;;;;;11.90;7.88;;;27.40;57.90;;;;;;5002493;28;20349;-74
2022/05/11 14:19:02;;;;;;;11.75;7.18;;;27.20;58.10;;;;;;4995870;28;20476;-75
2022/05/11 14:21:51;;;;;;;9.35;7.53;;;27.20;58.50;;;;;;5017088;28;20272;-73
2022/05/11 14:24:40;;;;;;;14.02;7.93;;;27.10;59.00;;;;;;5018339;28;20225;-74
2022/05/11 14:27:29;;;;;;;13.85;7.85;;;26.90;59.10;;;;;;5019403;28;20237;-75
2022/05/11 14:30:20;;;;;;;7.65;6.80;;;26.90;59.40;;;;;;5032452;28;20225;-72
2022/05/11 14:33:12;;;;;;;8.45;7.65;;;26.90;59.00;;;;;;5026765;28;20279;-72
2022/05/11 14:36:01;;;;;;;10.25;7.10;;;27.00;58.80;;;;;;5001519;28;20230;-72
2022/05/11 14:38:49;;;;;;;11.35;7.28;;;27.10;59.20;;;;;;5011197;28;20230;-75
2022/05/11 14:41:38;;;;;;;12.48;8.52;;;27.30;59.00;;;;;;5002298;28;20365;-74
2022/05/11 14:44:27;;;;;;;10.70;7.75;;;27.30;59.10;;;;;;5003845;28;20303;-76
2022/05/11 14:47:41;;;;;;;11.13;8.18;;;27.20;59.20;;;;;;5000886;28;20326;-73
2022/05/11 14:50:30;;;;;;;11.98;7.47;;;27.10;59.30;;;;;;5018270;28;20473;-73
2022/05/11 14:53:18;;;;;;;10.75;7.72;;;27.10;59.20;;;;;;4997131;28;20704;-71
2022/05/11 14:56:07;;;;;;;13.90;8.30;;;27.10;58.50;;;;;;4987958;28;20226;-70
2022/05/11 15:02:04;;;;;;;8.10;7.00;;;26.90;58.70;;;;;;5004959;28;20901;-72
2022/05/11 15:04:57;;;;;;;10.27;7.53;;;26.80;58.70;;;;;;4999459;28;20234;-69
2022/05/11 15:07:48;;;;;;;9.85;7.60;;;27.00;58.80;;;;;;5000129;28;20851;-71
2022/05/11 15:10:40;;;;;;;11.55;7.15;;;26.90;59.10;;;;;;5007966;28;20712;-72
2022/05/11 15:13:31;;;;;;;9.10;7.53;;;26.80;59.90;;;;;;5034572;28;20213;-71
2022/05/11 15:16:20;;;;;;;11.48;7.00;;;26.80;59.30;;;;;;5024367;28;20322;-71
2022/05/11 15:19:09;;;;;;;10.27;6.95;;;26.80;59.20;;;;;;5018497;28;20683;-72
2022/05/11 15:21:59;;;;;;;9.18;7.32;;;26.80;59.40;;;;;;5021060;28;20557;-72
2022/05/11 15:24:48;;;;;;;8.93;7.32;;;26.90;59.80;;;;;;5019878;28;20788;-72
2022/05/11 15:27:37;;;;;;;8.73;6.82;;;26.70;60.00;;;;;;5024661;28;20225;-73
2022/05/11 15:30:27;;;;;;;7.53;6.72;;;26.60;59.90;;;;;;5010260;28;20689;-72
2022/05/11 15:33:18;;;;;;;7.65;6.80;;;26.60;59.90;;;;;;5005473;28;20296;-72
2022/05/11 15:36:06;;;;;;;13.73;7.13;;;26.70;60.00;;;;;;5019158;28;20233;-72
2022/05/11 15:38:56;;;;;;;12.40;6.90;;;26.60;60.20;;;;;;5005131;28;20396;-72
2022/05/11 15:41:45;;;;;;;13.95;6.55;;;26.50;60.10;;;;;;5019791;28;20260;-72
2022/05/11 15:44:34;;;;;;;9.07;7.43;;;26.40;59.60;;;;;;5019201;28;20975;-73